sensor_id;sensor_type;location;lat;lon;timestamp;P1;durP1;ratioP1;P2;durP2;ratioP2
2638;SDS011;1329;51.384;7.122;2023-04-16T00:00:01;25.07;;;20.23;;
2638;SDS011;1329;51.384;7.122;2023-04-16T00:02:31;24.30;;;19.73;;
2638;SDS011;1329;51.384;7.122;2023-04-16T00:04:59;23.00;;;19.33;;
2638;SDS011;1329;51.384;7.122;2023-04-16T00:07:27;23.23;;;19.67;;
2638;SDS011;1329;51.384;7.122;2023-04-16T00:09:56;25.57;;;19.87;;
2638;SDS011;1329;51.384;7.122;2023-04-16T00:12:23;24.13;;;20.03;;
2638;SDS011;1329;51.384;7.122;2023-04-16T00:14:50;22.87;;;19.83;;
2638;SDS011;1329;51.384;7.122;2023-04-16T00:17:18;24.77;;;19.33;;
2638;SDS011;1329;51.384;7.122;2023-04-16T00:19:45;22.40;;;20.00;;
2638;SDS011;1329;51.384;7.122;2023-04-16T00:22:16;23.70;;;20.20;;
2638;SDS011;1329;51.384;7.122;2023-04-16T00:24:44;24.47;;;20.63;;
2638;SDS011;1329;51.384;7.122;2023-04-16T00:27:13;24.83;;;21.30;;
2638;SDS011;1329;51.384;7.122;2023-04-16T00:29:42;24.90;;;21.43;;
2638;SDS011;1329;51.384;7.122;2023-04-16T00:32:10;23.20;;;20.37;;
2638;SDS011;1329;51.384;7.122;2023-04-16T00:34:38;22.73;;;20.17;;
2638;SDS011;1329;51.384;7.122;2023-04-16T00:37:05;24.87;;;20.70;;
2638;SDS011;1329;51.384;7.122;2023-04-16T00:39:33;28.33;;;21.97;;
2638;SDS011;1329;51.384;7.122;2023-04-16T00:42:00;25.07;;;22.37;;
2638;SDS011;1329;51.384;7.122;2023-04-16T00:44:29;24.60;;;21.57;;
2638;SDS011;1329;51.384;7.122;2023-04-16T00:47:01;27.20;;;22.17;;
2638;SDS011;1329;51.384;7.122;2023-04-16T00:49:31;27.80;;;21.93;;
2638;SDS011;1329;51.384;7.122;2023-04-16T00:52:03;28.63;;;22.97;;
2638;SDS011;1329;51.384;7.122;2023-04-16T00:54:30;30.13;;;23.77;;
2638;SDS011;1329;51.384;7.122;2023-04-16T00:56:58;30.20;;;24.13;;
2638;SDS011;1329;51.384;7.122;2023-04-16T00:59:26;29.73;;;23.60;;
2638;SDS011;1329;51.384;7.122;2023-04-16T01:01:56;29.87;;;23.83;;
2638;SDS011;1329;51.384;7.122;2023-04-16T01:04:24;30.00;;;25.47;;
2638;SDS011;1329;51.384;7.122;2023-04-16T01:06:54;30.50;;;25.23;;
2638;SDS011;1329;51.384;7.122;2023-04-16T01:09:22;30.50;;;24.63;;
2638;SDS011;1329;51.384;7.122;2023-04-16T01:11:54;31.90;;;25.53;;
2638;SDS011;1329;51.384;7.122;2023-04-16T01:14:25;29.33;;;26.07;;
2638;SDS011;1329;51.384;7.122;2023-04-16T01:16:55;31.73;;;25.80;;
2638;SDS011;1329;51.384;7.122;2023-04-16T01:19:22;30.50;;;26.03;;
2638;SDS011;1329;51.384;7.122;2023-04-16T01:21:52;27.80;;;24.83;;
2638;SDS011;1329;51.384;7.122;2023-04-16T01:24:19;30.07;;;25.13;;
2638;SDS011;1329;51.384;7.122;2023-04-16T01:26:49;30.60;;;25.30;;
2638;SDS011;1329;51.384;7.122;2023-04-16T01:29:16;28.53;;;23.80;;
2638;SDS011;1329;51.384;7.122;2023-04-16T01:31:45;30.63;;;25.57;;
2638;SDS011;1329;51.384;7.122;2023-04-16T01:34:19;28.77;;;24.67;;
2638;SDS011;1329;51.384;7.122;2023-04-16T01:36:46;29.53;;;23.87;;
2638;SDS011;1329;51.384;7.122;2023-04-16T01:39:20;25.87;;;22.77;;
2638;SDS011;1329;51.384;7.122;2023-04-16T01:41:50;28.47;;;23.40;;
2638;SDS011;1329;51.384;7.122;2023-04-16T01:44:18;28.63;;;23.33;;
2638;SDS011;1329;51.384;7.122;2023-04-16T01:46:46;29.37;;;24.47;;
2638;SDS011;1329;51.384;7.122;2023-04-16T01:49:13;31.47;;;25.30;;
2638;SDS011;1329;51.384;7.122;2023-04-16T01:51:41;29.40;;;24.70;;
2638;SDS011;1329;51.384;7.122;2023-04-16T01:54:08;28.57;;;24.43;;
2638;SDS011;1329;51.384;7.122;2023-04-16T01:56:37;29.53;;;24.67;;
2638;SDS011;1329;51.384;7.122;2023-04-16T01:59:05;29.10;;;23.57;;
2638;SDS011;1329;51.384;7.122;2023-04-16T02:01:33;28.57;;;23.63;;
2638;SDS011;1329;51.384;7.122;2023-04-16T02:04:04;27.90;;;23.43;;
2638;SDS011;1329;51.384;7.122;2023-04-16T02:06:33;32.67;;;25.07;;
2638;SDS011;1329;51.384;7.122;2023-04-16T02:09:01;26.00;;;23.20;;
2638;SDS011;1329;51.384;7.122;2023-04-16T02:11:30;27.83;;;24.83;;
2638;SDS011;1329;51.384;7.122;2023-04-16T02:13:59;29.63;;;24.67;;
2638;SDS011;1329;51.384;7.122;2023-04-16T02:16:30;34.10;;;26.23;;
2638;SDS011;1329;51.384;7.122;2023-04-16T02:19:03;32.50;;;26.23;;
2638;SDS011;1329;51.384;7.122;2023-04-16T02:21:31;31.43;;;26.30;;
2638;SDS011;1329;51.384;7.122;2023-04-16T02:24:01;33.87;;;27.07;;
2638;SDS011;1329;51.384;7.122;2023-04-16T02:26:35;32.13;;;25.87;;
2638;SDS011;1329;51.384;7.122;2023-04-16T02:29:05;33.07;;;27.13;;
2638;SDS011;1329;51.384;7.122;2023-04-16T02:31:33;32.67;;;26.53;;
2638;SDS011;1329;51.384;7.122;2023-04-16T02:34:01;33.37;;;26.83;;
2638;SDS011;1329;51.384;7.122;2023-04-16T02:36:29;32.80;;;27.40;;
2638;SDS011;1329;51.384;7.122;2023-04-16T02:38:57;33.13;;;28.47;;
2638;SDS011;1329;51.384;7.122;2023-04-16T02:41:28;33.17;;;27.50;;
2638;SDS011;1329;51.384;7.122;2023-04-16T02:43:55;35.47;;;27.57;;
2638;SDS011;1329;51.384;7.122;2023-04-16T02:46:24;34.27;;;27.77;;
2638;SDS011;1329;51.384;7.122;2023-04-16T02:48:53;33.63;;;29.07;;
2638;SDS011;1329;51.384;7.122;2023-04-16T02:51:23;32.67;;;26.63;;
2638;SDS011;1329;51.384;7.122;2023-04-16T02:53:53;33.70;;;26.77;;
2638;SDS011;1329;51.384;7.122;2023-04-16T02:56:30;35.67;;;28.50;;
2638;SDS011;1329;51.384;7.122;2023-04-16T02:59:00;31.67;;;26.00;;
2638;SDS011;1329;51.384;7.122;2023-04-16T03:01:30;31.07;;;26.10;;
2638;SDS011;1329;51.384;7.122;2023-04-16T03:04:18;32.67;;;26.67;;
2638;SDS011;1329;51.384;7.122;2023-04-16T03:06:45;28.30;;;25.20;;
2638;SDS011;1329;51.384;7.122;2023-04-16T03:09:18;29.40;;;24.37;;
2638;SDS011;1329;51.384;7.122;2023-04-16T03:11:46;30.63;;;25.63;;
2638;SDS011;1329;51.384;7.122;2023-04-16T03:14:13;34.33;;;27.40;;
2638;SDS011;1329;51.384;7.122;2023-04-16T03:16:46;31.07;;;25.67;;
2638;SDS011;1329;51.384;7.122;2023-04-16T03:19:16;30.43;;;25.00;;
2638;SDS011;1329;51.384;7.122;2023-04-16T03:21:44;29.40;;;25.33;;
2638;SDS011;1329;51.384;7.122;2023-04-16T03:24:11;31.93;;;25.50;;
2638;SDS011;1329;51.384;7.122;2023-04-16T03:26:38;29.73;;;25.13;;
2638;SDS011;1329;51.384;7.122;2023-04-16T03:29:10;31.83;;;25.67;;
2638;SDS011;1329;51.384;7.122;2023-04-16T03:31:39;32.30;;;25.93;;
2638;SDS011;1329;51.384;7.122;2023-04-16T03:34:08;32.43;;;27.50;;
2638;SDS011;1329;51.384;7.122;2023-04-16T03:36:43;32.87;;;25.77;;
2638;SDS011;1329;51.384;7.122;2023-04-16T03:39:11;30.13;;;25.70;;
2638;SDS011;1329;51.384;7.122;2023-04-16T03:41:44;32.80;;;26.43;;
2638;SDS011;1329;51.384;7.122;2023-04-16T03:44:12;30.70;;;26.13;;
2638;SDS011;1329;51.384;7.122;2023-04-16T03:46:39;30.27;;;25.53;;
2638;SDS011;1329;51.384;7.122;2023-04-16T03:49:08;29.57;;;26.20;;
2638;SDS011;1329;51.384;7.122;2023-04-16T03:51:35;32.23;;;26.03;;
2638;SDS011;1329;51.384;7.122;2023-04-16T03:54:06;34.63;;;27.27;;
2638;SDS011;1329;51.384;7.122;2023-04-16T03:56:34;31.87;;;25.87;;
2638;SDS011;1329;51.384;7.122;2023-04-16T03:59:04;33.43;;;27.23;;
2638;SDS011;1329;51.384;7.122;2023-04-16T04:01:31;32.33;;;27.20;;
2638;SDS011;1329;51.384;7.122;2023-04-16T04:03:59;32.67;;;26.57;;
2638;SDS011;1329;51.384;7.122;2023-04-16T04:06:28;32.70;;;26.40;;
2638;SDS011;1329;51.384;7.122;2023-04-16T04:08:58;35.27;;;27.50;;
2638;SDS011;1329;51.384;7.122;2023-04-16T04:11:27;32.13;;;26.93;;
2638;SDS011;1329;51.384;7.122;2023-04-16T04:14:01;34.27;;;27.30;;
2638;SDS011;1329;51.384;7.122;2023-04-16T04:16:29;33.90;;;27.77;;
2638;SDS011;1329;51.384;7.122;2023-04-16T04:18:56;34.87;;;28.47;;
2638;SDS011;1329;51.384;7.122;2023-04-16T04:21:24;35.57;;;27.13;;
2638;SDS011;1329;51.384;7.122;2023-04-16T04:23:53;34.47;;;27.27;;
2638;SDS011;1329;51.384;7.122;2023-04-16T04:26:20;37.70;;;28.77;;
2638;SDS011;1329;51.384;7.122;2023-04-16T04:28:47;35.43;;;28.17;;
2638;SDS011;1329;51.384;7.122;2023-04-16T04:31:14;38.00;;;29.10;;
2638;SDS011;1329;51.384;7.122;2023-04-16T04:33:45;33.20;;;26.17;;
2638;SDS011;1329;51.384;7.122;2023-04-16T04:36:18;34.63;;;26.70;;
2638;SDS011;1329;51.384;7.122;2023-04-16T04:38:45;34.30;;;26.07;;
2638;SDS011;1329;51.384;7.122;2023-04-16T04:41:17;34.87;;;27.07;;
2638;SDS011;1329;51.384;7.122;2023-04-16T04:43:48;36.23;;;26.40;;
2638;SDS011;1329;51.384;7.122;2023-04-16T04:46:16;35.27;;;27.30;;
2638;SDS011;1329;51.384;7.122;2023-04-16T04:48:44;38.30;;;28.43;;
2638;SDS011;1329;51.384;7.122;2023-04-16T04:51:14;34.23;;;25.70;;
2638;SDS011;1329;51.384;7.122;2023-04-16T04:53:41;32.43;;;24.97;;
2638;SDS011;1329;51.384;7.122;2023-04-16T04:56:11;35.10;;;26.30;;
2638;SDS011;1329;51.384;7.122;2023-04-16T04:58:40;34.90;;;26.50;;
2638;SDS011;1329;51.384;7.122;2023-04-16T05:01:10;37.67;;;26.27;;
2638;SDS011;1329;51.384;7.122;2023-04-16T05:03:38;40.00;;;27.70;;
2638;SDS011;1329;51.384;7.122;2023-04-16T05:06:05;34.00;;;26.40;;
2638;SDS011;1329;51.384;7.122;2023-04-16T05:08:36;37.23;;;27.40;;
2638;SDS011;1329;51.384;7.122;2023-04-16T05:11:03;38.33;;;26.80;;
2638;SDS011;1329;51.384;7.122;2023-04-16T05:13:30;37.30;;;28.17;;
2638;SDS011;1329;51.384;7.122;2023-04-16T05:16:00;35.50;;;27.27;;
2638;SDS011;1329;51.384;7.122;2023-04-16T05:18:28;35.33;;;26.20;;
2638;SDS011;1329;51.384;7.122;2023-04-16T05:20:56;33.73;;;26.00;;
2638;SDS011;1329;51.384;7.122;2023-04-16T05:23:23;34.30;;;25.97;;
2638;SDS011;1329;51.384;7.122;2023-04-16T05:25:50;32.40;;;24.03;;
2638;SDS011;1329;51.384;7.122;2023-04-16T05:28:18;33.20;;;25.63;;
2638;SDS011;1329;51.384;7.122;2023-04-16T05:30:45;37.57;;;27.37;;
2638;SDS011;1329;51.384;7.122;2023-04-16T05:33:16;35.97;;;26.03;;
2638;SDS011;1329;51.384;7.122;2023-04-16T05:35:43;34.60;;;25.80;;
2638;SDS011;1329;51.384;7.122;2023-04-16T05:38:09;33.57;;;25.57;;
2638;SDS011;1329;51.384;7.122;2023-04-16T05:40:37;35.87;;;26.10;;
2638;SDS011;1329;51.384;7.122;2023-04-16T05:43:04;37.63;;;27.20;;
2638;SDS011;1329;51.384;7.122;2023-04-16T05:45:33;37.03;;;26.57;;
2638;SDS011;1329;51.384;7.122;2023-04-16T05:48:05;34.27;;;25.50;;
2638;SDS011;1329;51.384;7.122;2023-04-16T05:50:34;33.20;;;25.23;;
2638;SDS011;1329;51.384;7.122;2023-04-16T05:53:04;36.70;;;26.03;;
2638;SDS011;1329;51.384;7.122;2023-04-16T05:55:32;35.83;;;25.37;;
2638;SDS011;1329;51.384;7.122;2023-04-16T05:58:00;36.03;;;25.63;;
2638;SDS011;1329;51.384;7.122;2023-04-16T06:00:28;35.80;;;25.73;;
2638;SDS011;1329;51.384;7.122;2023-04-16T06:02:55;31.70;;;24.70;;
2638;SDS011;1329;51.384;7.122;2023-04-16T06:05:25;33.43;;;24.60;;
2638;SDS011;1329;51.384;7.122;2023-04-16T06:07:57;33.10;;;25.67;;
2638;SDS011;1329;51.384;7.122;2023-04-16T06:10:24;32.70;;;24.70;;
2638;SDS011;1329;51.384;7.122;2023-04-16T06:12:51;33.23;;;25.27;;
2638;SDS011;1329;51.384;7.122;2023-04-16T06:15:18;30.27;;;24.17;;
2638;SDS011;1329;51.384;7.122;2023-04-16T06:17:45;34.10;;;26.30;;
2638;SDS011;1329;51.384;7.122;2023-04-16T06:20:14;32.03;;;24.33;;
2638;SDS011;1329;51.384;7.122;2023-04-16T06:22:42;32.53;;;25.47;;
2638;SDS011;1329;51.384;7.122;2023-04-16T06:25:10;33.43;;;25.40;;
2638;SDS011;1329;51.384;7.122;2023-04-16T06:27:40;30.70;;;23.70;;
2638;SDS011;1329;51.384;7.122;2023-04-16T06:30:10;34.47;;;25.70;;
2638;SDS011;1329;51.384;7.122;2023-04-16T06:32:39;32.83;;;25.10;;
2638;SDS011;1329;51.384;7.122;2023-04-16T06:35:08;31.30;;;24.70;;
2638;SDS011;1329;51.384;7.122;2023-04-16T06:37:35;32.00;;;23.83;;
2638;SDS011;1329;51.384;7.122;2023-04-16T06:40:03;32.70;;;24.47;;
2638;SDS011;1329;51.384;7.122;2023-04-16T06:42:34;32.80;;;25.97;;
2638;SDS011;1329;51.384;7.122;2023-04-16T06:45:02;32.47;;;25.27;;
2638;SDS011;1329;51.384;7.122;2023-04-16T06:47:30;33.30;;;24.77;;
2638;SDS011;1329;51.384;7.122;2023-04-16T06:50:00;31.27;;;24.57;;
2638;SDS011;1329;51.384;7.122;2023-04-16T06:52:27;30.57;;;24.80;;
2638;SDS011;1329;51.384;7.122;2023-04-16T06:54:55;31.63;;;24.33;;
2638;SDS011;1329;51.384;7.122;2023-04-16T06:57:22;31.17;;;24.67;;
2638;SDS011;1329;51.384;7.122;2023-04-16T06:59:51;31.27;;;25.20;;
2638;SDS011;1329;51.384;7.122;2023-04-16T07:02:18;33.50;;;26.03;;
2638;SDS011;1329;51.384;7.122;2023-04-16T07:04:45;31.70;;;24.43;;
2638;SDS011;1329;51.384;7.122;2023-04-16T07:07:19;31.70;;;24.37;;
2638;SDS011;1329;51.384;7.122;2023-04-16T07:09:48;34.00;;;25.37;;
2638;SDS011;1329;51.384;7.122;2023-04-16T07:12:15;33.30;;;25.33;;
2638;SDS011;1329;51.384;7.122;2023-04-16T07:14:45;35.90;;;25.73;;
2638;SDS011;1329;51.384;7.122;2023-04-16T07:17:16;31.77;;;25.67;;
2638;SDS011;1329;51.384;7.122;2023-04-16T07:19:47;29.97;;;24.80;;
2638;SDS011;1329;51.384;7.122;2023-04-16T07:22:14;35.67;;;26.33;;
2638;SDS011;1329;51.384;7.122;2023-04-16T07:24:43;33.77;;;25.13;;
2638;SDS011;1329;51.384;7.122;2023-04-16T07:27:10;34.30;;;26.47;;
2638;SDS011;1329;51.384;7.122;2023-04-16T07:29:41;33.93;;;26.73;;
2638;SDS011;1329;51.384;7.122;2023-04-16T07:32:10;34.03;;;26.97;;
2638;SDS011;1329;51.384;7.122;2023-04-16T07:34:39;31.17;;;25.40;;
2638;SDS011;1329;51.384;7.122;2023-04-16T07:37:07;31.80;;;25.70;;
2638;SDS011;1329;51.384;7.122;2023-04-16T07:39:34;32.77;;;25.30;;
2638;SDS011;1329;51.384;7.122;2023-04-16T07:42:01;31.77;;;25.40;;
2638;SDS011;1329;51.384;7.122;2023-04-16T07:44:34;32.57;;;26.27;;
2638;SDS011;1329;51.384;7.122;2023-04-16T07:47:04;32.73;;;26.03;;
2638;SDS011;1329;51.384;7.122;2023-04-16T07:49:31;31.77;;;26.13;;
2638;SDS011;1329;51.384;7.122;2023-04-16T07:52:00;30.60;;;25.07;;
2638;SDS011;1329;51.384;7.122;2023-04-16T07:54:27;31.47;;;25.73;;
2638;SDS011;1329;51.384;7.122;2023-04-16T07:56:55;33.77;;;26.93;;
2638;SDS011;1329;51.384;7.122;2023-04-16T07:59:22;30.27;;;25.37;;
2638;SDS011;1329;51.384;7.122;2023-04-16T08:01:50;32.00;;;26.63;;
2638;SDS011;1329;51.384;7.122;2023-04-16T08:04:19;30.70;;;25.93;;
2638;SDS011;1329;51.384;7.122;2023-04-16T08:06:48;30.27;;;26.13;;
2638;SDS011;1329;51.384;7.122;2023-04-16T08:09:17;32.10;;;25.90;;
2638;SDS011;1329;51.384;7.122;2023-04-16T08:11:45;30.73;;;26.13;;
2638;SDS011;1329;51.384;7.122;2023-04-16T08:14:16;31.13;;;26.40;;
2638;SDS011;1329;51.384;7.122;2023-04-16T08:16:51;32.00;;;27.37;;
2638;SDS011;1329;51.384;7.122;2023-04-16T08:19:21;30.10;;;25.60;;
2638;SDS011;1329;51.384;7.122;2023-04-16T08:21:51;32.07;;;26.43;;
2638;SDS011;1329;51.384;7.122;2023-04-16T08:24:22;31.90;;;25.80;;
2638;SDS011;1329;51.384;7.122;2023-04-16T08:26:49;32.90;;;26.60;;
2638;SDS011;1329;51.384;7.122;2023-04-16T08:29:20;30.47;;;24.83;;
2638;SDS011;1329;51.384;7.122;2023-04-16T08:31:49;29.07;;;25.40;;
2638;SDS011;1329;51.384;7.122;2023-04-16T08:34:16;30.50;;;26.20;;
2638;SDS011;1329;51.384;7.122;2023-04-16T08:36:43;30.33;;;25.67;;
2638;SDS011;1329;51.384;7.122;2023-04-16T08:39:10;31.80;;;25.23;;
2638;SDS011;1329;51.384;7.122;2023-04-16T08:41:39;28.57;;;24.83;;
2638;SDS011;1329;51.384;7.122;2023-04-16T08:44:10;28.37;;;25.17;;
2638;SDS011;1329;51.384;7.122;2023-04-16T08:46:46;29.80;;;25.83;;
2638;SDS011;1329;51.384;7.122;2023-04-16T08:49:14;25.73;;;22.80;;
2638;SDS011;1329;51.384;7.122;2023-04-16T08:51:56;27.17;;;24.33;;
2638;SDS011;1329;51.384;7.122;2023-04-16T08:54:31;27.60;;;24.45;;
2638;SDS011;1329;51.384;7.122;2023-04-16T08:57:06;27.60;;;24.60;;
2638;SDS011;1329;51.384;7.122;2023-04-16T08:59:44;26.08;;;23.30;;
2638;SDS011;1329;51.384;7.122;2023-04-16T09:02:15;27.90;;;22.93;;
2638;SDS011;1329;51.384;7.122;2023-04-16T09:04:46;26.67;;;23.17;;
2638;SDS011;1329;51.384;7.122;2023-04-16T09:07:18;25.48;;;22.67;;
2638;SDS011;1329;51.384;7.122;2023-04-16T09:09:51;26.35;;;23.55;;
2638;SDS011;1329;51.384;7.122;2023-04-16T09:12:24;26.02;;;23.05;;
2638;SDS011;1329;51.384;7.122;2023-04-16T09:14:55;24.50;;;21.88;;
2638;SDS011;1329;51.384;7.122;2023-04-16T09:17:25;25.23;;;22.53;;
2638;SDS011;1329;51.384;7.122;2023-04-16T09:19:52;26.43;;;23.63;;
2638;SDS011;1329;51.384;7.122;2023-04-16T09:22:20;27.92;;;24.65;;
2638;SDS011;1329;51.384;7.122;2023-04-16T09:24:48;27.87;;;24.73;;
2638;SDS011;1329;51.384;7.122;2023-04-16T09:27:15;25.60;;;22.83;;
2638;SDS011;1329;51.384;7.122;2023-04-16T09:29:45;24.30;;;21.73;;
2638;SDS011;1329;51.384;7.122;2023-04-16T09:32:14;26.17;;;23.48;;
2638;SDS011;1329;51.384;7.122;2023-04-16T09:34:54;27.70;;;23.02;;
2638;SDS011;1329;51.384;7.122;2023-04-16T09:37:24;25.17;;;22.50;;
2638;SDS011;1329;51.384;7.122;2023-04-16T09:39:55;25.27;;;22.60;;
2638;SDS011;1329;51.384;7.122;2023-04-16T09:42:26;26.25;;;23.52;;
2638;SDS011;1329;51.384;7.122;2023-04-16T09:44:57;26.30;;;23.50;;
2638;SDS011;1329;51.384;7.122;2023-04-16T09:47:37;27.48;;;24.48;;
2638;SDS011;1329;51.384;7.122;2023-04-16T09:50:09;27.23;;;24.20;;
2638;SDS011;1329;51.384;7.122;2023-04-16T09:52:42;24.67;;;22.07;;
2638;SDS011;1329;51.384;7.122;2023-04-16T09:55:15;25.45;;;22.70;;
2638;SDS011;1329;51.384;7.122;2023-04-16T09:57:48;24.95;;;22.08;;
2638;SDS011;1329;51.384;7.122;2023-04-16T10:00:26;23.70;;;21.13;;
2638;SDS011;1329;51.384;7.122;2023-04-16T10:03:03;23.45;;;20.98;;
2638;SDS011;1329;51.384;7.122;2023-04-16T10:05:31;23.98;;;21.45;;
2638;SDS011;1329;51.384;7.122;2023-04-16T10:08:01;25.60;;;22.77;;
2638;SDS011;1329;51.384;7.122;2023-04-16T10:10:37;24.83;;;22.33;;
2638;SDS011;1329;51.384;7.122;2023-04-16T10:13:06;24.65;;;22.05;;
2638;SDS011;1329;51.384;7.122;2023-04-16T10:15:43;25.20;;;22.70;;
2638;SDS011;1329;51.384;7.122;2023-04-16T10:18:11;24.13;;;21.63;;
2638;SDS011;1329;51.384;7.122;2023-04-16T10:20:40;22.63;;;20.33;;
2638;SDS011;1329;51.384;7.122;2023-04-16T10:23:08;21.73;;;19.60;;
2638;SDS011;1329;51.384;7.122;2023-04-16T10:25:35;21.80;;;19.48;;
2638;SDS011;1329;51.384;7.122;2023-04-16T10:28:07;21.30;;;19.17;;
2638;SDS011;1329;51.384;7.122;2023-04-16T10:30:36;21.58;;;19.27;;
2638;SDS011;1329;51.384;7.122;2023-04-16T10:33:07;22.08;;;19.85;;
2638;SDS011;1329;51.384;7.122;2023-04-16T10:35:40;22.05;;;19.75;;
2638;SDS011;1329;51.384;7.122;2023-04-16T10:38:23;22.55;;;20.25;;
2638;SDS011;1329;51.384;7.122;2023-04-16T10:40:57;21.73;;;19.42;;
2638;SDS011;1329;51.384;7.122;2023-04-16T10:43:26;23.10;;;20.77;;
2638;SDS011;1329;51.384;7.122;2023-04-16T10:45:54;23.17;;;20.90;;
2638;SDS011;1329;51.384;7.122;2023-04-16T10:48:28;21.50;;;19.35;;
2638;SDS011;1329;51.384;7.122;2023-04-16T10:50:59;22.42;;;20.08;;
2638;SDS011;1329;51.384;7.122;2023-04-16T10:53:26;23.13;;;20.77;;
2638;SDS011;1329;51.384;7.122;2023-04-16T10:55:57;21.90;;;19.75;;
2638;SDS011;1329;51.384;7.122;2023-04-16T10:58:37;21.92;;;19.63;;
2638;SDS011;1329;51.384;7.122;2023-04-16T11:01:05;21.85;;;19.75;;
2638;SDS011;1329;51.384;7.122;2023-04-16T11:03:41;22.30;;;20.20;;
2638;SDS011;1329;51.384;7.122;2023-04-16T11:06:15;22.80;;;20.58;;
2638;SDS011;1329;51.384;7.122;2023-04-16T11:08:51;21.73;;;19.63;;
2638;SDS011;1329;51.384;7.122;2023-04-16T11:11:19;20.52;;;18.52;;
2638;SDS011;1329;51.384;7.122;2023-04-16T11:13:46;20.63;;;18.63;;
2638;SDS011;1329;51.384;7.122;2023-04-16T11:16:14;19.48;;;17.58;;
2638;SDS011;1329;51.384;7.122;2023-04-16T11:18:45;19.08;;;17.25;;
2638;SDS011;1329;51.384;7.122;2023-04-16T11:21:12;19.77;;;17.80;;
2638;SDS011;1329;51.384;7.122;2023-04-16T11:23:51;20.23;;;18.42;;
2638;SDS011;1329;51.384;7.122;2023-04-16T11:26:23;19.58;;;17.58;;
2638;SDS011;1329;51.384;7.122;2023-04-16T11:28:52;18.45;;;16.55;;
2638;SDS011;1329;51.384;7.122;2023-04-16T11:31:22;18.80;;;17.00;;
2638;SDS011;1329;51.384;7.122;2023-04-16T11:33:53;18.77;;;16.95;;
2638;SDS011;1329;51.384;7.122;2023-04-16T11:36:22;17.17;;;15.55;;
2638;SDS011;1329;51.384;7.122;2023-04-16T11:38:51;17.55;;;15.75;;
2638;SDS011;1329;51.384;7.122;2023-04-16T11:41:32;16.58;;;14.98;;
2638;SDS011;1329;51.384;7.122;2023-04-16T11:44:15;16.80;;;15.18;;
2638;SDS011;1329;51.384;7.122;2023-04-16T11:46:47;17.58;;;15.80;;
2638;SDS011;1329;51.384;7.122;2023-04-16T11:49:35;17.60;;;15.90;;
2638;SDS011;1329;51.384;7.122;2023-04-16T11:52:02;16.65;;;15.07;;
2638;SDS011;1329;51.384;7.122;2023-04-16T11:54:48;17.13;;;15.38;;
2638;SDS011;1329;51.384;7.122;2023-04-16T11:57:26;18.38;;;16.48;;
2638;SDS011;1329;51.384;7.122;2023-04-16T11:59:58;17.60;;;15.85;;
2638;SDS011;1329;51.384;7.122;2023-04-16T12:02:34;18.50;;;16.73;;
2638;SDS011;1329;51.384;7.122;2023-04-16T12:07:56;18.90;;;16.98;;
2638;SDS011;1329;51.384;7.122;2023-04-16T12:10:23;19.40;;;17.48;;
2638;SDS011;1329;51.384;7.122;2023-04-16T12:12:51;18.92;;;17.02;;
2638;SDS011;1329;51.384;7.122;2023-04-16T12:15:19;18.33;;;16.50;;
2638;SDS011;1329;51.384;7.122;2023-04-16T12:17:46;19.20;;;17.30;;
2638;SDS011;1329;51.384;7.122;2023-04-16T12:20:18;19.70;;;17.70;;
2638;SDS011;1329;51.384;7.122;2023-04-16T12:22:47;19.30;;;17.20;;
2638;SDS011;1329;51.384;7.122;2023-04-16T12:25:25;20.60;;;18.60;;
2638;SDS011;1329;51.384;7.122;2023-04-16T12:28:05;17.77;;;16.13;;
2638;SDS011;1329;51.384;7.122;2023-04-16T12:30:47;18.17;;;16.42;;
2638;SDS011;1329;51.384;7.122;2023-04-16T12:34:06;17.08;;;15.27;;
2638;SDS011;1329;51.384;7.122;2023-04-16T12:36:46;18.95;;;17.02;;
2638;SDS011;1329;51.384;7.122;2023-04-16T12:42:38;19.48;;;17.58;;
2638;SDS011;1329;51.384;7.122;2023-04-16T12:45:27;18.27;;;16.50;;
2638;SDS011;1329;51.384;7.122;2023-04-16T12:48:13;19.35;;;17.45;;
2638;SDS011;1329;51.384;7.122;2023-04-16T12:50:41;18.25;;;16.48;;
2638;SDS011;1329;51.384;7.122;2023-04-16T12:53:09;18.02;;;16.17;;
2638;SDS011;1329;51.384;7.122;2023-04-16T12:55:40;18.08;;;16.17;;
2638;SDS011;1329;51.384;7.122;2023-04-16T12:58:09;18.23;;;16.40;;
2638;SDS011;1329;51.384;7.122;2023-04-16T13:00:36;19.08;;;17.17;;
2638;SDS011;1329;51.384;7.122;2023-04-16T13:03:06;18.35;;;16.63;;
2638;SDS011;1329;51.384;7.122;2023-04-16T13:05:33;18.40;;;16.60;;
2638;SDS011;1329;51.384;7.122;2023-04-16T13:08:15;17.25;;;15.55;;
2638;SDS011;1329;51.384;7.122;2023-04-16T13:10:44;17.65;;;15.88;;
2638;SDS011;1329;51.384;7.122;2023-04-16T13:13:11;17.20;;;15.50;;
2638;SDS011;1329;51.384;7.122;2023-04-16T13:15:40;18.17;;;16.38;;
2638;SDS011;1329;51.384;7.122;2023-04-16T13:18:08;17.58;;;15.88;;
2638;SDS011;1329;51.384;7.122;2023-04-16T13:20:41;20.10;;;18.13;;
2638;SDS011;1329;51.384;7.122;2023-04-16T13:23:10;18.27;;;16.48;;
2638;SDS011;1329;51.384;7.122;2023-04-16T13:25:40;17.40;;;15.65;;
2638;SDS011;1329;51.384;7.122;2023-04-16T13:28:13;17.33;;;15.73;;
2638;SDS011;1329;51.384;7.122;2023-04-16T13:31:07;17.20;;;15.52;;
2638;SDS011;1329;51.384;7.122;2023-04-16T13:33:46;15.30;;;13.80;;
2638;SDS011;1329;51.384;7.122;2023-04-16T13:36:21;16.70;;;15.07;;
2638;SDS011;1329;51.384;7.122;2023-04-16T13:38:54;15.60;;;14.05;;
2638;SDS011;1329;51.384;7.122;2023-04-16T13:41:21;16.30;;;14.77;;
2638;SDS011;1329;51.384;7.122;2023-04-16T13:43:50;17.15;;;15.45;;
2638;SDS011;1329;51.384;7.122;2023-04-16T13:46:21;16.73;;;15.15;;
2638;SDS011;1329;51.384;7.122;2023-04-16T13:48:48;19.45;;;17.55;;
2638;SDS011;1329;51.384;7.122;2023-04-16T13:51:32;18.48;;;16.67;;
2638;SDS011;1329;51.384;7.122;2023-04-16T13:54:06;18.58;;;16.77;;
2638;SDS011;1329;51.384;7.122;2023-04-16T13:56:58;17.67;;;15.93;;
2638;SDS011;1329;51.384;7.122;2023-04-16T13:59:30;17.80;;;15.80;;
2638;SDS011;1329;51.384;7.122;2023-04-16T14:02:12;18.65;;;16.75;;
2638;SDS011;1329;51.384;7.122;2023-04-16T14:04:39;18.33;;;16.55;;
2638;SDS011;1329;51.384;7.122;2023-04-16T14:07:22;18.40;;;16.60;;
2638;SDS011;1329;51.384;7.122;2023-04-16T14:09:54;19.45;;;17.55;;
2638;SDS011;1329;51.384;7.122;2023-04-16T14:12:25;21.10;;;19.00;;
2638;SDS011;1329;51.384;7.122;2023-04-16T14:15:09;19.77;;;17.75;;
2638;SDS011;1329;51.384;7.122;2023-04-16T14:17:56;20.10;;;18.13;;
2638;SDS011;1329;51.384;7.122;2023-04-16T14:20:28;20.02;;;18.00;;
2638;SDS011;1329;51.384;7.122;2023-04-16T14:23:00;20.02;;;18.10;;
2638;SDS011;1329;51.384;7.122;2023-04-16T14:25:43;20.52;;;18.63;;
2638;SDS011;1329;51.384;7.122;2023-04-16T14:28:15;19.73;;;17.73;;
2638;SDS011;1329;51.384;7.122;2023-04-16T14:30:52;20.38;;;18.48;;
2638;SDS011;1329;51.384;7.122;2023-04-16T14:33:20;18.95;;;17.08;;
2638;SDS011;1329;51.384;7.122;2023-04-16T14:35:51;19.65;;;17.65;;
2638;SDS011;1329;51.384;7.122;2023-04-16T14:38:25;19.10;;;17.13;;
2638;SDS011;1329;51.384;7.122;2023-04-16T14:40:56;19.38;;;17.48;;
2638;SDS011;1329;51.384;7.122;2023-04-16T14:43:34;18.40;;;16.55;;
2638;SDS011;1329;51.384;7.122;2023-04-16T14:46:07;17.55;;;15.77;;
2638;SDS011;1329;51.384;7.122;2023-04-16T14:48:46;17.65;;;15.85;;
2638;SDS011;1329;51.384;7.122;2023-04-16T14:51:27;17.48;;;15.80;;
2638;SDS011;1329;51.384;7.122;2023-04-16T14:53:56;18.30;;;16.48;;
2638;SDS011;1329;51.384;7.122;2023-04-16T14:56:39;16.83;;;15.10;;
2638;SDS011;1329;51.384;7.122;2023-04-16T14:59:07;16.98;;;15.38;;
2638;SDS011;1329;51.384;7.122;2023-04-16T15:01:38;16.80;;;15.18;;
2638;SDS011;1329;51.384;7.122;2023-04-16T15:04:06;17.02;;;15.43;;
2638;SDS011;1329;51.384;7.122;2023-04-16T15:06:50;17.15;;;15.48;;
2638;SDS011;1329;51.384;7.122;2023-04-16T15:09:21;17.13;;;15.52;;
2638;SDS011;1329;51.384;7.122;2023-04-16T15:11:54;17.00;;;15.20;;
2638;SDS011;1329;51.384;7.122;2023-04-16T15:14:34;16.38;;;14.77;;